createdAt,value
2022-09-29T00:01:19.561Z,8.20
2022-09-29T00:03:47.905Z,8.30
2022-09-29T00:06:19.776Z,8.30
2022-09-29T00:08:48.342Z,8.40
2022-09-29T00:11:18.618Z,8.50
2022-09-29T00:13:48.461Z,8.60
2022-09-29T00:16:19.887Z,8.70
2022-09-29T00:18:48.561Z,8.70
2022-09-29T00:21:20.285Z,8.80
2022-09-29T00:23:49.730Z,8.90
2022-09-29T00:26:20.197Z,9.00
2022-09-29T00:28:49.884Z,9.10
2022-09-29T00:31:18.246Z,9.20
2022-09-29T00:33:47.769Z,9.20
2022-09-29T00:36:19.222Z,9.20
2022-09-29T00:38:49.223Z,9.30
2022-09-29T00:41:19.881Z,9.20
2022-09-29T00:43:55.055Z,8.90
2022-09-29T00:46:30.152Z,8.70
2022-09-29T00:49:01.980Z,8.50
2022-09-29T00:51:34.611Z,8.40
2022-09-29T00:54:04.422Z,8.40
2022-09-29T00:56:33.900Z,8.40
2022-09-29T00:59:05.691Z,8.50
2022-09-29T01:01:34.334Z,8.60
2022-09-29T01:04:08.104Z,8.60
2022-09-29T01:06:40.936Z,8.70
2022-09-29T01:09:12.280Z,8.70
2022-09-29T01:11:40.641Z,8.60
2022-09-29T01:14:11.572Z,8.30
2022-09-29T01:16:42.981Z,8.10
2022-09-29T01:19:17.096Z,8.00
2022-09-29T01:21:56.980Z,8.00
2022-09-29T01:24:52.849Z,7.90
2022-09-29T01:27:29.879Z,7.90
2022-09-29T01:30:09.980Z,7.90
2022-09-29T01:33:02.451Z,7.90
2022-09-29T01:35:41.406Z,8.20
2022-09-29T01:38:24.260Z,8.00
2022-09-29T01:41:02.926Z,8.10
2022-09-29T01:43:36.278Z,8.10
2022-09-29T01:46:08.710Z,8.10
2022-09-29T01:48:41.920Z,8.10
2022-09-29T01:51:17.610Z,8.10
2022-09-29T01:53:50.190Z,8.10
2022-09-29T01:56:25.523Z,8.00
2022-09-29T01:58:57.344Z,8.00
2022-09-29T02:01:32.936Z,8.00
2022-09-29T02:04:06.639Z,8.00
2022-09-29T02:06:40.485Z,8.00
2022-09-29T02:09:13.691Z,7.90
2022-09-29T02:11:43.811Z,7.90
2022-09-29T02:14:15.850Z,7.80
2022-09-29T02:16:49.315Z,7.90
2022-09-29T02:19:23.852Z,7.90
2022-09-29T02:21:54.673Z,8.00
2022-09-29T02:24:24.171Z,8.00
2022-09-29T02:26:53.231Z,8.00
2022-09-29T02:29:22.184Z,8.10
2022-09-29T02:31:51.049Z,8.20
2022-09-29T02:34:23.419Z,8.40
2022-09-29T02:36:59.461Z,8.40
2022-09-29T02:39:39.324Z,8.60
2022-09-29T02:42:18.905Z,8.60
2022-09-29T02:45:08.640Z,8.80
2022-09-29T02:48:06.694Z,8.80
2022-09-29T02:50:53.512Z,8.70
2022-09-29T02:53:33.190Z,8.60
2022-09-29T02:56:09.497Z,8.60
2022-09-29T02:58:46.207Z,8.60
2022-09-29T03:01:17.532Z,8.60
2022-09-29T03:03:45.986Z,8.70
2022-09-29T03:06:20.093Z,8.80
2022-09-29T03:08:48.442Z,8.80
2022-09-29T03:11:16.932Z,8.90
2022-09-29T03:13:45.291Z,8.90
2022-09-29T03:16:13.971Z,8.90
2022-09-29T03:18:42.290Z,8.80
2022-09-29T03:21:10.930Z,8.80
2022-09-29T03:23:40.975Z,8.90
2022-09-29T03:26:09.666Z,8.90
2022-09-29T03:28:38.019Z,8.70
2022-09-29T03:31:08.232Z,8.60
2022-09-29T03:33:38.434Z,8.50
2022-09-29T03:36:09.105Z,8.40
2022-09-29T03:38:37.446Z,8.30
2022-09-29T03:41:07.941Z,8.20
2022-09-29T03:43:36.776Z,8.40
2022-09-29T03:46:06.025Z,8.50
2022-09-29T03:48:35.440Z,8.50
2022-09-29T03:51:03.789Z,8.50
2022-09-29T03:53:32.212Z,8.40
2022-09-29T03:56:00.692Z,8.40
2022-09-29T03:58:30.577Z,8.40
2022-09-29T04:00:58.948Z,8.40
2022-09-29T04:03:27.464Z,8.20
2022-09-29T04:05:55.848Z,8.20
2022-09-29T04:08:24.646Z,8.10
2022-09-29T04:10:52.893Z,8.10
2022-09-29T04:13:22.868Z,8.20
2022-09-29T04:15:52.687Z,8.30
2022-09-29T04:18:21.413Z,8.20
2022-09-29T04:20:49.802Z,8.20
2022-09-29T04:23:18.575Z,8.20
2022-09-29T04:25:47.310Z,8.20
2022-09-29T04:28:15.638Z,8.10
2022-09-29T04:30:44.581Z,8.10
2022-09-29T04:33:15.832Z,8.20
2022-09-29T04:35:44.692Z,8.30
2022-09-29T04:38:13.080Z,8.40
2022-09-29T04:40:42.303Z,8.50
2022-09-29T04:43:11.013Z,8.60
2022-09-29T04:45:39.795Z,8.70
2022-09-29T04:48:08.434Z,8.70
2022-09-29T04:50:38.618Z,8.60
2022-09-29T04:53:08.069Z,8.60
2022-09-29T04:55:38.577Z,8.70
2022-09-29T04:58:07.573Z,8.70
2022-09-29T05:00:35.895Z,8.80
2022-09-29T05:03:04.809Z,8.90
2022-09-29T05:05:33.106Z,9.00
2022-09-29T05:08:04.793Z,9.10
2022-09-29T05:10:33.352Z,9.10
2022-09-29T05:13:01.931Z,9.20
2022-09-29T05:15:30.246Z,9.30
2022-09-29T05:18:02.973Z,9.30
2022-09-29T05:20:39.917Z,9.40
2022-09-29T05:23:13.270Z,9.40
2022-09-29T05:25:41.577Z,9.40
2022-09-29T05:28:10.634Z,9.50
2022-09-29T05:30:39.427Z,9.50
2022-09-29T05:33:07.951Z,9.50
2022-09-29T05:35:36.844Z,9.60
2022-09-29T05:38:08.068Z,9.60
2022-09-29T05:40:38.912Z,9.50
2022-09-29T05:43:07.211Z,9.40
2022-09-29T05:45:36.063Z,9.40
2022-09-29T05:48:04.741Z,9.50
2022-09-29T05:50:33.408Z,9.50
2022-09-29T05:53:04.431Z,9.50
2022-09-29T05:55:33.218Z,9.60
2022-09-29T05:58:03.100Z,9.60
2022-09-29T06:00:31.762Z,9.60
2022-09-29T06:03:01.283Z,9.60
2022-09-29T06:05:29.998Z,9.70
2022-09-29T06:07:58.913Z,9.70
2022-09-29T06:10:27.586Z,9.80
2022-09-29T06:12:58.610Z,9.80
2022-09-29T06:15:28.396Z,9.80
2022-09-29T06:17:57.437Z,9.80
2022-09-29T06:20:26.007Z,9.80
2022-09-29T06:22:55.560Z,9.90
2022-09-29T06:25:24.574Z,9.90
2022-09-29T06:27:53.353Z,9.90
2022-09-29T06:30:21.654Z,10.00
2022-09-29T06:32:51.733Z,10.00
2022-09-29T06:35:37.576Z,10.00
2022-09-29T06:38:06.343Z,10.00
2022-09-29T06:40:34.775Z,10.00
2022-09-29T06:43:03.285Z,10.00
2022-09-29T06:45:31.656Z,9.90
2022-09-29T06:48:03.508Z,9.90
2022-09-29T06:50:31.801Z,9.90
2022-09-29T06:53:04.259Z,9.90
2022-09-29T06:55:33.173Z,9.90
2022-09-29T06:58:04.340Z,9.90
2022-09-29T07:00:35.398Z,9.90
2022-09-29T07:03:06.830Z,9.90
2022-09-29T07:05:36.251Z,10.00
2022-09-29T07:08:04.539Z,10.00
2022-09-29T07:10:33.555Z,10.10
2022-09-29T07:13:02.037Z,10.10
2022-09-29T07:15:32.735Z,10.10
2022-09-29T07:18:02.059Z,10.00
2022-09-29T07:20:32.891Z,9.90
2022-09-29T07:23:01.061Z,9.90
2022-09-29T07:25:50.615Z,9.90
2022-09-29T07:28:18.430Z,9.90
2022-09-29T07:30:46.954Z,9.90
2022-09-29T07:33:15.246Z,10.00
2022-09-29T07:35:45.152Z,10.00
2022-09-29T07:38:13.972Z,10.00
2022-09-29T07:40:42.266Z,10.00
2022-09-29T07:43:10.938Z,10.10
2022-09-29T07:45:45.683Z,10.10
2022-09-29T07:48:14.516Z,10.20
2022-09-29T07:50:44.658Z,10.20
2022-09-29T07:53:14.494Z,10.30
2022-09-29T07:55:42.797Z,10.30
2022-09-29T07:58:11.689Z,10.40
2022-09-29T08:00:40.175Z,10.40
2022-09-29T08:03:09.007Z,10.40
2022-09-29T08:05:37.466Z,10.50
2022-09-29T08:08:07.573Z,10.50
2022-09-29T08:10:47.911Z,10.50
2022-09-29T08:13:20.232Z,10.50
2022-09-29T08:15:48.546Z,10.60
2022-09-29T08:18:17.435Z,10.60
2022-09-29T08:20:48.707Z,10.60
2022-09-29T08:23:19.007Z,10.60
2022-09-29T08:25:58.062Z,10.70
2022-09-29T08:28:32.474Z,10.70
2022-09-29T08:31:04.626Z,10.70
2022-09-29T08:33:33.559Z,10.80
2022-09-29T08:36:03.975Z,10.80
2022-09-29T08:38:35.041Z,10.90
2022-09-29T08:41:06.344Z,10.90
2022-09-29T08:43:38.553Z,10.90
2022-09-29T08:46:10.074Z,10.90
2022-09-29T08:48:54.943Z,10.90
2022-09-29T08:51:41.669Z,11.00
2022-09-29T08:54:33.382Z,11.00
2022-09-29T08:57:06.439Z,11.00
2022-09-29T08:59:34.930Z,11.00
2022-09-29T09:02:35.670Z,11.10
2022-09-29T09:05:16.289Z,11.10
2022-09-29T09:07:48.272Z,11.20
2022-09-29T09:10:31.432Z,11.20
2022-09-29T09:13:19.051Z,11.20
2022-09-29T09:16:17.249Z,11.20
2022-09-29T09:19:06.352Z,11.10
2022-09-29T09:21:42.604Z,11.00
2022-09-29T09:24:20.329Z,11.00
2022-09-29T09:26:53.385Z,10.90
2022-09-29T09:29:31.586Z,10.90
2022-09-29T09:32:05.688Z,10.80
2022-09-29T09:34:44.256Z,10.80
2022-09-29T09:37:18.315Z,10.80
2022-09-29T09:39:52.134Z,10.80
2022-09-29T09:42:26.889Z,10.90
2022-09-29T09:45:00.348Z,10.90
2022-09-29T09:47:32.696Z,10.90
2022-09-29T09:50:04.280Z,10.90
2022-09-29T09:52:45.968Z,10.90
2022-09-29T09:55:17.680Z,10.90
2022-09-29T09:58:09.725Z,10.90
2022-09-29T10:00:42.682Z,10.90
2022-09-29T10:03:12.334Z,10.90
2022-09-29T10:05:43.074Z,11.00
2022-09-29T10:08:15.139Z,11.00
2022-09-29T10:10:57.474Z,11.00
2022-09-29T10:13:30.590Z,11.00
2022-09-29T10:16:02.458Z,11.10
2022-09-29T10:18:33.486Z,11.20
2022-09-29T10:21:01.896Z,11.20
2022-09-29T10:23:32.830Z,11.20
2022-09-29T10:26:12.976Z,11.20
2022-09-29T10:28:46.859Z,11.10
2022-09-29T10:31:21.403Z,11.20
2022-09-29T10:33:56.986Z,11.20
2022-09-29T10:36:27.621Z,11.20
2022-09-29T10:39:03.673Z,11.20
2022-09-29T10:41:54.200Z,11.20
2022-09-29T10:44:24.579Z,11.20
2022-09-29T10:46:55.902Z,11.20
2022-09-29T10:49:27.962Z,11.30
2022-09-29T10:52:01.744Z,11.30
2022-09-29T10:54:34.863Z,11.30
2022-09-29T10:57:15.476Z,11.30
2022-09-29T10:59:54.330Z,11.20
2022-09-29T11:02:27.883Z,11.00
2022-09-29T11:05:00.628Z,11.10
2022-09-29T11:07:30.004Z,11.20
2022-09-29T11:09:58.997Z,11.30
2022-09-29T11:12:33.148Z,11.30
2022-09-29T11:15:22.858Z,11.30
2022-09-29T11:17:52.260Z,11.30
2022-09-29T11:20:22.233Z,11.40
2022-09-29T11:23:07.903Z,11.40
2022-09-29T11:26:05.855Z,11.50
2022-09-29T11:28:51.527Z,11.50
2022-09-29T11:31:40.579Z,11.60
2022-09-29T11:34:35.090Z,11.60
2022-09-29T11:37:15.645Z,11.70
2022-09-29T11:39:53.275Z,11.70
2022-09-29T11:42:41.904Z,11.70
2022-09-29T11:48:20.036Z,11.80
2022-09-29T11:50:56.022Z,11.80
2022-09-29T11:53:43.341Z,11.80
2022-09-29T11:56:24.268Z,11.80
2022-09-29T11:59:03.810Z,11.80
2022-09-29T12:01:43.133Z,11.80
2022-09-29T12:04:24.605Z,11.80
2022-09-29T12:06:58.569Z,11.90
2022-09-29T12:09:43.681Z,11.90
2022-09-29T12:12:23.967Z,12.00
2022-09-29T12:15:08.852Z,12.00
2022-09-29T12:17:43.787Z,12.00
2022-09-29T12:20:21.701Z,12.10
2022-09-29T12:22:53.539Z,12.10
2022-09-29T12:25:26.274Z,12.10
2022-09-29T12:28:02.303Z,12.10
2022-09-29T12:30:33.584Z,12.10
2022-09-29T12:33:09.292Z,12.10
2022-09-29T12:35:46.803Z,12.20
2022-09-29T12:38:21.132Z,12.20
2022-09-29T12:40:59.386Z,12.30
2022-09-29T12:43:34.275Z,12.20
2022-09-29T12:46:10.620Z,12.30
2022-09-29T12:48:53.317Z,12.20
2022-09-29T12:51:30.371Z,12.20
2022-09-29T12:54:14.807Z,12.20
2022-09-29T12:56:48.082Z,12.20
2022-09-29T12:59:24.662Z,12.30
2022-09-29T13:01:56.265Z,12.30
2022-09-29T13:04:55.219Z,12.30
2022-09-29T13:07:49.359Z,12.30
2022-09-29T13:10:35.718Z,12.30
2022-09-29T13:13:50.333Z,12.20
2022-09-29T13:16:29.221Z,12.30
2022-09-29T13:19:52.547Z,12.30
2022-09-29T13:22:34.561Z,12.20
2022-09-29T13:25:15.170Z,12.20
2022-09-29T13:27:45.904Z,12.20
2022-09-29T13:30:16.934Z,12.20
2022-09-29T13:32:48.395Z,12.20
2022-09-29T13:35:20.140Z,12.20
2022-09-29T13:37:53.532Z,12.20
2022-09-29T13:40:26.848Z,12.20
2022-09-29T13:42:56.581Z,12.20
2022-09-29T13:45:44.770Z,12.20
2022-09-29T13:48:36.911Z,12.20
2022-09-29T13:51:38.865Z,12.10
2022-09-29T13:54:35.314Z,12.10
2022-09-29T13:57:27.076Z,12.10
2022-09-29T14:00:28.003Z,12.00
2022-09-29T14:03:08.994Z,12.00
2022-09-29T14:05:40.941Z,11.90
2022-09-29T14:08:23.968Z,11.90
2022-09-29T14:10:59.702Z,11.90
2022-09-29T14:13:37.644Z,11.80
2022-09-29T14:16:18.915Z,11.80
2022-09-29T14:18:53.148Z,11.70
2022-09-29T14:21:47.375Z,11.70
2022-09-29T14:24:44.673Z,11.70
2022-09-29T14:27:27.850Z,11.70
2022-09-29T14:30:16.881Z,11.70
2022-09-29T14:32:53.100Z,11.70
2022-09-29T14:35:27.339Z,11.70
2022-09-29T14:38:05.773Z,11.70
2022-09-29T14:40:35.040Z,11.70
2022-09-29T14:43:14.673Z,11.70
2022-09-29T14:46:39.889Z,11.60
2022-09-29T14:49:44.130Z,11.60
2022-09-29T14:52:23.723Z,11.60
2022-09-29T14:55:04.529Z,11.60
2022-09-29T14:57:46.957Z,11.60
2022-09-29T15:00:19.544Z,11.50
2022-09-29T15:02:59.676Z,11.60
2022-09-29T15:05:35.144Z,11.60
2022-09-29T15:08:21.279Z,11.60
2022-09-29T15:10:49.505Z,11.60
2022-09-29T15:13:23.241Z,11.60
2022-09-29T15:15:56.259Z,11.60
2022-09-29T15:18:43.006Z,11.60
2022-09-29T15:21:19.600Z,11.60
2022-09-29T15:24:22.135Z,11.50
2022-09-29T15:26:50.581Z,11.40
2022-09-29T15:29:20.586Z,11.40
2022-09-29T15:31:49.762Z,11.40
2022-09-29T15:34:22.738Z,11.40
2022-09-29T15:36:53.592Z,11.50
2022-09-29T15:39:45.149Z,11.40
2022-09-29T15:42:16.400Z,11.40
2022-09-29T15:44:55.175Z,11.40
2022-09-29T15:47:28.242Z,11.40
2022-09-29T15:49:58.280Z,11.40
2022-09-29T15:52:28.931Z,11.30
2022-09-29T15:54:59.521Z,11.10
2022-09-29T15:57:43.976Z,10.90
2022-09-29T16:00:46.262Z,10.90
2022-09-29T16:03:20.036Z,10.70
2022-09-29T16:06:18.270Z,10.60
2022-09-29T16:08:49.339Z,10.60
2022-09-29T16:11:22.786Z,10.60
2022-09-29T16:13:55.378Z,10.60
2022-09-29T16:16:30.940Z,10.60
2022-09-29T16:19:08.859Z,10.60
2022-09-29T16:21:39.563Z,10.70
2022-09-29T16:24:18.780Z,10.80
2022-09-29T16:26:50.327Z,10.80
2022-09-29T16:29:27.960Z,10.90
2022-09-29T16:31:58.454Z,10.90
2022-09-29T16:34:30.337Z,10.80
2022-09-29T16:37:03.399Z,10.80
2022-09-29T16:39:33.956Z,10.80
2022-09-29T16:42:05.942Z,10.80
2022-09-29T16:44:39.008Z,10.80
2022-09-29T16:47:16.435Z,10.70
2022-09-29T16:49:51.273Z,10.70
2022-09-29T16:52:26.644Z,10.60
2022-09-29T16:55:07.850Z,10.50
2022-09-29T16:57:38.032Z,10.60
2022-09-29T17:00:13.003Z,10.60
2022-09-29T17:02:42.060Z,10.60
2022-09-29T17:05:10.516Z,10.50
2022-09-29T17:07:42.760Z,10.60
2022-09-29T17:10:17.529Z,10.60
2022-09-29T17:12:46.301Z,10.60
2022-09-29T17:15:16.486Z,10.50
2022-09-29T17:17:47.503Z,10.40
2022-09-29T17:20:18.432Z,10.30
2022-09-29T17:22:49.214Z,10.30
2022-09-29T17:25:17.765Z,10.40
2022-09-29T17:28:03.816Z,10.30
2022-09-29T17:30:32.073Z,10.30
2022-09-29T17:33:01.173Z,10.20
2022-09-29T17:35:33.021Z,10.30
2022-09-29T17:38:04.104Z,10.40
2022-09-29T17:40:35.764Z,10.50
2022-09-29T17:43:04.981Z,10.50
2022-09-29T17:45:35.331Z,10.60
2022-09-29T17:48:04.961Z,10.60
2022-09-29T17:50:36.553Z,10.60
2022-09-29T17:53:06.695Z,10.60
2022-09-29T17:55:35.436Z,10.60
2022-09-29T17:58:05.006Z,10.60
2022-09-29T18:00:38.539Z,10.60
2022-09-29T18:03:09.509Z,10.60
2022-09-29T18:05:39.552Z,10.60
2022-09-29T18:08:13.741Z,10.60
2022-09-29T18:10:44.879Z,10.70
2022-09-29T18:13:13.236Z,10.70
2022-09-29T18:15:43.693Z,10.80
2022-09-29T18:18:15.666Z,10.80
2022-09-29T18:20:46.291Z,10.90
2022-09-29T18:23:16.389Z,10.90
2022-09-29T18:25:48.109Z,10.90
2022-09-29T18:28:17.696Z,11.00
2022-09-29T18:30:49.141Z,11.00
2022-09-29T18:33:19.735Z,11.00
2022-09-29T18:35:53.890Z,11.00
2022-09-29T18:38:23.854Z,11.00
2022-09-29T18:40:54.385Z,11.00
2022-09-29T18:43:25.162Z,11.00
2022-09-29T18:45:55.187Z,11.10
2022-09-29T18:48:23.631Z,11.00
2022-09-29T18:50:55.131Z,11.00
2022-09-29T18:53:25.210Z,11.00
2022-09-29T18:56:01.934Z,10.90
2022-09-29T18:58:30.810Z,10.90
2022-09-29T19:00:59.589Z,11.00
2022-09-29T19:03:30.045Z,10.90
2022-09-29T19:05:59.024Z,10.90
2022-09-29T19:08:33.355Z,10.90
2022-09-29T19:11:04.838Z,10.90
2022-09-29T19:13:33.117Z,11.00
2022-09-29T19:16:04.045Z,11.00
2022-09-29T19:18:32.461Z,11.00
2022-09-29T19:21:01.385Z,11.00
2022-09-29T19:23:30.994Z,10.90
2022-09-29T19:26:01.885Z,10.90
2022-09-29T19:28:30.252Z,10.90
2022-09-29T19:31:06.413Z,10.90
2022-09-29T19:33:35.227Z,10.90
2022-09-29T19:36:07.666Z,10.90
2022-09-29T19:38:38.992Z,10.80
2022-09-29T19:41:13.698Z,10.80
2022-09-29T19:43:42.281Z,10.80
2022-09-29T19:46:12.358Z,10.90
2022-09-29T19:48:41.847Z,10.90
2022-09-29T19:51:30.093Z,10.90
2022-09-29T19:54:14.632Z,10.80
2022-09-29T19:56:45.838Z,10.80
2022-09-29T19:59:14.741Z,10.80
2022-09-29T20:01:45.697Z,10.80
2022-09-29T20:04:15.098Z,10.80
2022-09-29T20:06:44.995Z,10.80
2022-09-29T20:09:15.538Z,10.80
2022-09-29T20:11:46.954Z,10.80
2022-09-29T20:14:17.533Z,10.80
2022-09-29T20:16:46.435Z,10.70
2022-09-29T20:19:16.978Z,10.60
2022-09-29T20:21:46.840Z,10.60
2022-09-29T20:24:19.111Z,10.60
2022-09-29T20:26:49.236Z,10.60
2022-09-29T20:29:20.453Z,10.60
2022-09-29T20:31:49.340Z,10.70
2022-09-29T20:34:20.825Z,10.70
2022-09-29T20:36:54.202Z,10.70
2022-09-29T20:39:26.349Z,10.70
2022-09-29T20:41:55.698Z,10.80
2022-09-29T20:44:25.724Z,10.80
2022-09-29T20:46:55.500Z,10.80
2022-09-29T20:49:23.940Z,10.80
2022-09-29T20:51:52.741Z,10.90
2022-09-29T20:54:21.272Z,10.80
2022-09-29T20:56:52.404Z,10.80
2022-09-29T20:59:23.977Z,10.60
2022-09-29T21:01:53.762Z,10.50
2022-09-29T21:04:23.108Z,10.40
2022-09-29T21:06:53.196Z,10.40
2022-09-29T21:09:24.085Z,10.20
2022-09-29T21:11:56.065Z,10.10
2022-09-29T21:14:27.812Z,10.10
2022-09-29T21:16:58.548Z,10.00
2022-09-29T21:19:26.968Z,10.00
2022-09-29T21:21:56.058Z,10.10
2022-09-29T21:24:24.982Z,10.20
2022-09-29T21:26:56.246Z,10.20
2022-09-29T21:29:24.812Z,10.30
2022-09-29T21:31:53.129Z,10.10
2022-09-29T21:34:22.069Z,10.10
2022-09-29T21:36:50.546Z,10.20
2022-09-29T21:39:19.216Z,10.30
2022-09-29T21:41:47.848Z,10.40
2022-09-29T21:44:20.178Z,10.40
2022-09-29T21:46:48.959Z,10.40
2022-09-29T21:49:19.539Z,10.50
2022-09-29T21:51:50.083Z,10.50
2022-09-29T21:54:20.718Z,10.50
2022-09-29T21:56:50.085Z,10.60
2022-09-29T21:59:21.882Z,10.60
2022-09-29T22:01:52.080Z,10.60
2022-09-29T22:04:21.120Z,10.70
2022-09-29T22:06:49.713Z,10.70
2022-09-29T22:09:20.899Z,10.80
2022-09-29T22:11:49.914Z,10.80
2022-09-29T22:14:21.022Z,10.70
2022-09-29T22:16:49.434Z,10.50
2022-09-29T22:19:24.142Z,10.50
2022-09-29T22:21:54.261Z,10.50
2022-09-29T22:24:24.013Z,10.50
2022-09-29T22:26:52.778Z,10.60
2022-09-29T22:29:23.450Z,10.60
2022-09-29T22:31:52.124Z,10.60
2022-09-29T22:34:20.792Z,10.60
2022-09-29T22:36:49.575Z,10.70
2022-09-29T22:39:17.958Z,10.70
2022-09-29T22:41:52.870Z,10.70
2022-09-29T22:44:22.850Z,10.70
2022-09-29T22:46:51.954Z,10.80
2022-09-29T22:49:23.237Z,10.80
2022-09-29T22:51:52.046Z,10.80
2022-09-29T22:54:20.448Z,10.90
2022-09-29T22:56:49.771Z,10.90
2022-09-29T22:59:18.474Z,10.90
2022-09-29T23:01:49.583Z,10.80
2022-09-29T23:04:18.097Z,10.90
2022-09-29T23:06:47.209Z,10.80
2022-09-29T23:09:15.723Z,10.80
2022-09-29T23:11:44.647Z,10.80
2022-09-29T23:14:15.004Z,10.90
2022-09-29T23:16:44.351Z,10.90
2022-09-29T23:19:14.112Z,10.90
2022-09-29T23:21:42.668Z,10.90
2022-09-29T23:24:11.826Z,10.90
2022-09-29T23:26:40.063Z,10.90
2022-09-29T23:29:08.587Z,10.90
2022-09-29T23:31:37.126Z,10.90
2022-09-29T23:34:06.058Z,10.90
2022-09-29T23:36:35.733Z,10.90
2022-09-29T23:39:14.497Z,10.90
2022-09-29T23:41:45.204Z,10.90
2022-09-29T23:44:15.743Z,11.00
2022-09-29T23:46:44.980Z,11.00
2022-09-29T23:49:15.780Z,11.00
2022-09-29T23:51:46.355Z,11.00
2022-09-29T23:54:18.075Z,11.00
2022-09-29T23:56:47.463Z,10.90
2022-09-29T23:59:16.781Z,10.90
